Time;durP1;ratioP1;P1;durP2;ratioP2;P2;SDS_P1;SDS_P2;PMS_P1;PMS_P2;Temp;Humidity;BMP_temperature;BMP_pressure;BME280_temperature;BME280_humidity;BME280_pressure;Samples;Min_cycle;Max_cycle;Signal;HPM_P1;HPM_P2
2023/03/01 00:00:49;;;;;;;;;;;18.60;29.60;;;;;;3057781;19;4955;-79
2023/03/01 00:01:50;;;;;;;;;;;18.70;29.60;;;;;;3057722;19;4419;-79
2023/03/01 00:02:50;;;;;;;;;;;18.70;29.70;;;;;;3057511;19;4418;-78
2023/03/01 00:03:51;;;;;;;;;;;18.70;29.70;;;;;;3057155;19;4553;-77
2023/03/01 00:04:52;;;;;;;;;;;18.70;29.60;;;;;;3058689;19;4402;-77
2023/03/01 00:05:52;;;;;;;;;;;18.70;29.60;;;;;;3058426;19;4390;-79
2023/03/01 00:06:53;;;;;;;;;;;18.80;29.60;;;;;;3058530;19;4400;-78
2023/03/01 00:07:54;;;;;;;;;;;18.80;29.60;;;;;;3058802;19;4917;-79
2023/03/01 00:08:55;;;;;;;;;;;18.80;29.60;;;;;;3057019;19;4931;-78
2023/03/01 00:09:55;;;;;;;;;;;18.80;29.60;;;;;;3055659;19;4958;-79
2023/03/01 00:11:26;;;;;;;;;;;18.80;29.50;;;;;;3056498;19;4936;-89
2023/03/01 00:12:27;;;;;;;;;;;18.80;29.50;;;;;;2954105;19;2004264;-88
2023/03/01 00:13:28;;;;;;;;;;;18.80;29.50;;;;;;3057566;19;4433;-88
2023/03/01 00:14:28;;;;;;;;;;;18.80;29.50;;;;;;3056085;19;4981;-88
2023/03/01 00:15:29;;;;;;;;;;;18.80;29.50;;;;;;3056786;19;4832;-88
2023/03/01 00:16:33;;;;;;;;;;;18.80;29.50;;;;;;3056868;19;5864;-88
2023/03/01 00:17:34;;;;;;;;;;;18.80;29.60;;;;;;3057980;19;5667;-87
2023/03/01 00:18:36;;;;;;;;;;;18.70;29.50;;;;;;3056688;19;4970;-86
2023/03/01 00:19:36;;;;;;;;;;;18.70;29.50;;;;;;3057108;19;4959;-88
2023/03/01 00:20:37;;;;;;;;;;;18.70;29.50;;;;;;3057186;19;5072;-87
2023/03/01 00:21:39;;;;;;;;;;;18.70;29.50;;;;;;3057764;19;4997;-87
2023/03/01 00:22:40;;;;;;;;;;;18.70;29.60;;;;;;3058972;19;4409;-88
2023/03/01 00:23:41;;;;;;;;;;;18.60;29.50;;;;;;3058748;19;4806;-89
2023/03/01 00:24:41;;;;;;;;;;;18.60;29.60;;;;;;3058557;19;4963;-88
2023/03/01 00:25:42;;;;;;;;;;;18.70;29.50;;;;;;3058008;19;4895;-89
2023/03/01 00:26:44;;;;;;;;;;;18.60;29.50;;;;;;3057161;19;4892;-87
2023/03/01 00:27:46;;;;;;;;;;;18.70;29.50;;;;;;3056655;19;4599;-88
2023/03/01 00:28:47;;;;;;;;;;;18.60;29.60;;;;;;3055929;19;4530;-88
2023/03/01 00:29:48;;;;;;;;;;;18.70;29.70;;;;;;3058910;19;4915;-88
2023/03/01 00:30:49;;;;;;;;;;;18.70;29.70;;;;;;3057909;19;4869;-87
2023/03/01 00:31:50;;;;;;;;;;;18.70;29.60;;;;;;3057081;19;4975;-87
2023/03/01 00:32:50;;;;;;;;;;;18.70;29.50;;;;;;3057036;19;4349;-88
2023/03/01 00:33:58;;;;;;;;;;;18.80;29.60;;;;;;3057152;19;4944;-88
2023/03/01 00:34:58;;;;;;;;;;;18.80;29.60;;;;;;3057027;19;4477;-87
2023/03/01 00:35:59;;;;;;;;;;;18.80;29.50;;;;;;3057895;19;4962;-88
2023/03/01 00:37:05;;;;;;;;;;;18.80;29.50;;;;;;3057622;19;4895;-87
2023/03/01 00:38:05;;;;;;;;;;;18.80;29.50;;;;;;3057229;19;4861;-76
2023/03/01 00:39:09;;;;;;;;;;;18.80;29.50;;;;;;3056246;19;5370;-88
2023/03/01 00:40:11;;;;;;;;;;;18.80;29.50;;;;;;3055744;19;4968;-88
2023/03/01 00:41:13;;;;;;;;;;;18.80;29.50;;;;;;3056782;19;4985;-88
2023/03/01 00:42:14;;;;;;;;;;;18.80;29.40;;;;;;3057406;19;5042;-88
2023/03/01 00:43:15;;;;;;;;;;;18.80;29.40;;;;;;3056631;19;4414;-88
2023/03/01 00:44:16;;;;;;;;;;;18.80;29.40;;;;;;3056581;19;4971;-88
2023/03/01 00:45:16;;;;;;;;;;;18.80;29.40;;;;;;3057140;19;4499;-82
2023/03/01 00:46:19;;;;;;;;;;;18.80;29.40;;;;;;3056986;19;4398;-82
2023/03/01 00:47:19;;;;;;;;;;;18.80;29.40;;;;;;3056595;19;4503;-82
2023/03/01 00:48:20;;;;;;;;;;;18.80;29.50;;;;;;3055365;19;5114;-82
2023/03/01 00:49:21;;;;;;;;;;;18.80;29.50;;;;;;3057401;19;4940;-82
2023/03/01 00:50:21;;;;;;;;;;;18.70;29.50;;;;;;3057459;19;4381;-80
2023/03/01 00:51:24;;;;;;;;;;;18.70;29.50;;;;;;3058006;19;5107;-83
2023/03/01 00:52:25;;;;;;;;;;;18.70;29.50;;;;;;3057771;19;4412;-82
2023/03/01 00:53:26;;;;;;;;;;;18.70;29.50;;;;;;3056803;19;4356;-81
2023/03/01 00:54:26;;;;;;;;;;;18.60;29.50;;;;;;3058031;19;4485;-82
2023/03/01 00:55:27;;;;;;;;;;;18.60;29.50;;;;;;3058082;19;5511;-81
2023/03/01 00:56:28;;;;;;;;;;;18.70;29.60;;;;;;3057053;19;5423;-82
2023/03/01 00:57:29;;;;;;;;;;;18.60;29.60;;;;;;3057222;19;4966;-82
2023/03/01 00:58:29;;;;;;;;;;;18.60;29.60;;;;;;3059696;19;4540;-81
2023/03/01 00:59:30;;;;;;;;;;;18.60;29.50;;;;;;3062635;19;4917;-81
2023/03/01 01:00:33;;;;;;;;;;;18.60;29.50;;;;;;3060817;19;4420;-83
2023/03/01 01:01:34;;;;;;;;;;;18.60;29.50;;;;;;3056866;19;5066;-81
2023/03/01 01:02:34;;;;;;;;;;;18.60;29.60;;;;;;3058910;19;4675;-81
2023/03/01 01:03:36;;;;;;;;;;;18.60;29.60;;;;;;3063314;19;4963;-82
2023/03/01 01:04:37;;;;;;;;;;;18.60;29.60;;;;;;3060398;19;4450;-82
2023/03/01 01:05:38;;;;;;;;;;;18.60;29.60;;;;;;3061563;19;4967;-80
2023/03/01 01:06:42;;;;;;;;;;;18.70;29.60;;;;;;3063321;19;4443;-82
2023/03/01 01:07:42;;;;;;;;;;;18.70;29.60;;;;;;3059073;19;4990;-83
2023/03/01 01:08:43;;;;;;;;;;;18.70;29.60;;;;;;3056922;19;4927;-82
2023/03/01 01:09:44;;;;;;;;;;;18.70;29.50;;;;;;3058627;19;4858;-82
2023/03/01 01:10:46;;;;;;;;;;;18.70;29.50;;;;;;3063209;19;4936;-82
2023/03/01 01:11:48;;;;;;;;;;;18.70;29.50;;;;;;3066252;19;4435;-82
2023/03/01 01:12:49;;;;;;;;;;;18.80;29.50;;;;;;3069287;19;4949;-81
2023/03/01 01:13:50;;;;;;;;;;;18.80;29.50;;;;;;3070286;19;4947;-82
2023/03/01 01:14:50;;;;;;;;;;;18.80;29.50;;;;;;3069516;19;4325;-80
2023/03/01 01:15:51;;;;;;;;;;;18.70;29.40;;;;;;3069538;19;5125;-81
2023/03/01 01:16:52;;;;;;;;;;;18.70;29.40;;;;;;3070392;19;4884;-81
2023/03/01 01:17:52;;;;;;;;;;;18.70;29.50;;;;;;3069998;19;5028;-81
2023/03/01 01:18:53;;;;;;;;;;;18.70;29.50;;;;;;3069481;19;4354;-81
2023/03/01 01:19:54;;;;;;;;;;;18.70;29.50;;;;;;3069283;19;5019;-81
2023/03/01 01:20:54;;;;;;;;;;;18.70;29.40;;;;;;3070938;19;5156;-80
2023/03/01 01:21:55;;;;;;;;;;;18.70;29.50;;;;;;3069255;19;4982;-80
2023/03/01 01:22:56;;;;;;;;;;;18.70;29.50;;;;;;3070258;19;4458;-80
2023/03/01 01:23:56;;;;;;;;;;;18.70;29.50;;;;;;3070072;19;4853;-81
2023/03/01 01:24:57;;;;;;;;;;;18.60;29.50;;;;;;3070193;19;5016;-80
2023/03/01 01:26:03;;;;;;;;;;;18.60;29.50;;;;;;3069653;19;4389;-79
2023/03/01 01:27:04;;;;;;;;;;;18.60;29.50;;;;;;3048146;19;4956;-80
2023/03/01 01:28:05;;;;;;;;;;;18.60;29.50;;;;;;3069559;19;4869;-81
2023/03/01 01:29:06;;;;;;;;;;;18.50;29.50;;;;;;3068625;19;4921;-76
2023/03/01 01:30:07;;;;;;;;;;;18.60;29.60;;;;;;3067982;19;4995;-77
2023/03/01 01:31:08;;;;;;;;;;;18.60;29.60;;;;;;3069142;19;4998;-80
2023/03/01 01:32:08;;;;;;;;;;;18.60;29.60;;;;;;3066557;19;4968;-81
2023/03/01 01:33:09;;;;;;;;;;;18.70;29.60;;;;;;3060372;19;4969;-81
2023/03/01 01:34:14;;;;;;;;;;;18.70;29.60;;;;;;3059690;19;5048;-80
2023/03/01 01:35:14;;;;;;;;;;;18.70;29.50;;;;;;3061629;19;4840;-81
2023/03/01 01:36:15;;;;;;;;;;;18.70;29.50;;;;;;3061753;19;794;-82
2023/03/01 01:37:16;;;;;;;;;;;18.70;29.50;;;;;;3060228;19;4358;-81
2023/03/01 01:38:17;;;;;;;;;;;18.70;29.40;;;;;;3060621;19;5051;-81
2023/03/01 01:39:18;;;;;;;;;;;18.70;29.40;;;;;;3060465;19;4530;-82
2023/03/01 01:40:19;;;;;;;;;;;18.70;29.40;;;;;;3060190;19;4928;-81
2023/03/01 01:41:19;;;;;;;;;;;18.70;29.50;;;;;;3059658;19;4884;-82
2023/03/01 01:42:20;;;;;;;;;;;18.70;29.40;;;;;;3059942;19;5160;-82
2023/03/01 01:43:26;;;;;;;;;;;18.70;29.40;;;;;;3059807;19;4995;-82
2023/03/01 01:44:27;;;;;;;;;;;18.70;29.50;;;;;;3059383;19;4526;-83
2023/03/01 01:45:29;;;;;;;;;;;18.70;29.40;;;;;;3058233;19;4414;-82
2023/03/01 01:46:31;;;;;;;;;;;18.70;29.40;;;;;;3058514;19;4359;-82
2023/03/01 01:47:32;;;;;;;;;;;18.70;29.40;;;;;;3058136;19;5362;-80
2023/03/01 01:48:41;;;;;;;;;;;18.70;29.50;;;;;;3057959;19;4903;-82
2023/03/01 01:49:47;;;;;;;;;;;18.60;29.60;;;;;;3057185;19;4932;-80
2023/03/01 01:50:57;;;;;;;;;;;18.60;29.50;;;;;;3057123;19;5103;-82
2023/03/01 01:52:10;;;;;;;;;;;18.60;29.50;;;;;;3057549;19;5373;-82
2023/03/01 01:53:17;;;;;;;;;;;18.60;29.80;;;;;;3056835;19;4873;-82
2023/03/01 01:54:27;;;;;;;;;;;18.60;29.70;;;;;;3056882;19;4969;-81
2023/03/01 01:55:29;;;;;;;;;;;18.50;29.50;;;;;;3055926;19;4775;-83
2023/03/01 01:56:30;;;;;;;;;;;18.50;29.50;;;;;;3057763;19;4926;-82
2023/03/01 01:57:37;;;;;;;;;;;18.50;29.50;;;;;;3058858;19;4908;-84
2023/03/01 01:58:38;;;;;;;;;;;18.50;29.50;;;;;;3056467;19;5300;-81
2023/03/01 01:59:39;;;;;;;;;;;18.50;29.50;;;;;;3056861;19;5015;-81
2023/03/01 02:00:39;;;;;;;;;;;18.50;29.50;;;;;;3056806;19;4815;-82
2023/03/01 02:01:41;;;;;;;;;;;18.50;29.50;;;;;;3056961;19;4418;-83
2023/03/01 02:02:42;;;;;;;;;;;18.60;29.60;;;;;;3056475;19;4954;-83
2023/03/01 02:03:44;;;;;;;;;;;18.60;29.50;;;;;;3056743;19;5454;-81
2023/03/01 02:04:44;;;;;;;;;;;18.60;29.50;;;;;;3057417;19;4527;-82
2023/03/01 02:05:45;;;;;;;;;;;18.70;29.50;;;;;;3056277;19;4934;-82
2023/03/01 02:07:03;;;;;;;;;;;18.70;29.40;;;;;;3056906;19;4875;-81
2023/03/01 02:08:04;;;;;;;;;;;18.60;29.40;;;;;;3057309;19;4320;-79
2023/03/01 02:09:07;;;;;;;;;;;18.70;29.40;;;;;;3056796;19;4944;-82
2023/03/01 02:10:09;;;;;;;;;;;18.70;29.40;;;;;;3055438;19;5557;-82
2023/03/01 02:11:09;;;;;;;;;;;18.70;29.40;;;;;;3057508;19;5105;-81
2023/03/01 02:12:10;;;;;;;;;;;18.70;29.40;;;;;;3056006;19;1631;-82
2023/03/01 02:13:11;;;;;;;;;;;18.70;29.40;;;;;;3055393;19;4864;-82
2023/03/01 02:14:11;;;;;;;;;;;18.60;29.40;;;;;;3056850;19;4350;-82
2023/03/01 02:15:12;;;;;;;;;;;18.60;29.40;;;;;;3056750;19;4956;-83
2023/03/01 02:16:14;;;;;;;;;;;18.60;29.40;;;;;;3056557;19;5397;-87
2023/03/01 02:17:15;;;;;;;;;;;18.60;29.50;;;;;;3056202;19;4500;-71
2023/03/01 02:18:18;;;;;;;;;;;18.60;29.50;;;;;;3056702;19;4525;-88
2023/03/01 02:19:30;;;;;;;;;;;18.50;29.40;;;;;;3056337;19;4909;-90
2023/03/01 02:20:43;;;;;;;;;;;18.50;29.50;;;;;;3055713;19;5001;-89
2023/03/01 02:21:55;;;;;;;;;;;18.50;29.40;;;;;;3055937;19;4889;-89
2023/03/01 02:22:56;;;;;;;;;;;18.50;29.40;;;;;;3056905;19;4932;-89
2023/03/01 02:23:59;;;;;;;;;;;18.50;29.50;;;;;;3056892;19;4405;-92
2023/03/01 02:25:20;;;;;;;;;;;18.50;29.50;;;;;;3058440;19;5016;-78
2023/03/01 02:26:27;;;;;;;;;;;18.50;29.50;;;;;;2955412;19;2004371;-70
